createdAt,value
2018-02-04T00:00:18.312Z,40.60
2018-02-04T00:02:46.073Z,34.70
2018-02-04T00:05:13.835Z,41.22
2018-02-04T00:07:41.651Z,39.17
2018-02-04T00:10:09.457Z,36.15
2018-02-04T00:12:37.216Z,39.88
2018-02-04T00:15:05.023Z,39.42
2018-02-04T00:17:33.548Z,38.90
2018-02-04T00:20:01.313Z,41.58
2018-02-04T00:22:38.060Z,36.30
2018-02-04T00:25:05.854Z,34.33
2018-02-04T00:27:33.615Z,44.75
2018-02-04T00:30:01.423Z,40.97
2018-02-04T00:32:29.976Z,40.88
2018-02-04T00:34:57.739Z,31.52
2018-02-04T00:37:25.563Z,33.20
2018-02-04T00:39:53.318Z,34.28
2018-02-04T00:42:21.084Z,35.20
2018-02-04T00:44:48.901Z,33.55
2018-02-04T00:47:16.657Z,36.03
2018-02-04T00:49:44.419Z,36.25
2018-02-04T00:52:12.240Z,34.90
2018-02-04T00:54:39.990Z,30.35
2018-02-04T00:57:07.748Z,33.40
2018-02-04T00:59:35.559Z,27.73
2018-02-04T01:02:03.327Z,31.05
2018-02-04T01:04:31.087Z,28.40
2018-02-04T01:06:58.898Z,26.77
2018-02-04T01:09:26.650Z,24.08
2018-02-04T01:11:54.448Z,27.17
2018-02-04T01:14:22.443Z,26.10
2018-02-04T01:16:50.204Z,25.48
2018-02-04T01:19:17.968Z,29.90
2018-02-04T01:21:45.778Z,24.42
2018-02-04T01:24:13.535Z,21.98
2018-02-04T01:26:41.296Z,31.25
2018-02-04T01:29:09.111Z,28.80
2018-02-04T01:31:36.877Z,37.33
2018-02-04T01:34:04.633Z,27.42
2018-02-04T01:36:32.457Z,27.58
2018-02-04T01:39:00.224Z,32.65
2018-02-04T01:41:28.000Z,22.98
2018-02-04T01:43:55.810Z,28.05
2018-02-04T01:46:24.332Z,25.55
2018-02-04T01:48:52.092Z,26.17
2018-02-04T01:51:19.904Z,26.08
2018-02-04T01:53:48.427Z,28.17
2018-02-04T01:56:16.199Z,29.85
2018-02-04T01:58:44.015Z,27.30
2018-02-04T02:01:12.545Z,25.17
2018-02-04T02:03:40.311Z,24.00
2018-02-04T02:06:08.123Z,29.70
2018-02-04T02:08:36.655Z,32.03
2018-02-04T02:11:05.189Z,31.27
2018-02-04T02:13:33.772Z,24.63
2018-02-04T02:16:01.537Z,25.33
2018-02-04T02:18:29.332Z,23.17
2018-02-04T02:20:57.140Z,33.17
2018-02-04T02:23:25.661Z,30.98
2018-02-04T02:25:53.415Z,27.45
2018-02-04T02:28:21.256Z,29.23
2018-02-04T02:30:49.785Z,26.30
2018-02-04T02:33:17.549Z,32.58
2018-02-04T02:35:45.362Z,28.42
2018-02-04T02:38:13.884Z,29.52
2018-02-04T02:40:41.680Z,30.55
2018-02-04T02:43:09.520Z,25.45
2018-02-04T02:45:37.272Z,20.33
2018-02-04T02:48:05.034Z,22.27
2018-02-04T02:50:32.844Z,26.40
2018-02-04T02:53:01.400Z,23.20
2018-02-04T02:55:29.158Z,23.90
2018-02-04T02:57:56.988Z,22.62
2018-02-04T03:00:24.748Z,21.27
2018-02-04T03:02:52.524Z,20.33
2018-02-04T03:05:20.336Z,22.25
2018-02-04T03:07:48.864Z,18.40
2018-02-04T03:10:16.632Z,22.27
2018-02-04T03:12:45.210Z,17.33
2018-02-04T03:15:13.277Z,22.83
2018-02-04T03:17:41.038Z,22.65
2018-02-04T03:20:08.847Z,21.30
2018-02-04T03:22:37.368Z,22.10
2018-02-04T03:25:05.152Z,23.98
2018-02-04T03:27:32.967Z,22.00
2018-02-04T03:30:01.523Z,17.92
2018-02-04T03:32:30.060Z,18.33
2018-02-04T03:34:57.876Z,20.37
2018-02-04T03:37:26.403Z,16.37
2018-02-04T03:39:54.223Z,17.50
2018-02-04T03:42:22.804Z,15.85
2018-02-04T03:44:51.331Z,17.27
2018-02-04T03:47:19.106Z,14.52
2018-02-04T03:49:46.925Z,17.67
2018-02-04T03:52:14.681Z,16.55
2018-02-04T03:54:42.437Z,16.70
2018-02-04T03:57:11.033Z,16.20
2018-02-04T03:59:38.790Z,12.23
2018-02-04T04:02:06.579Z,13.98
2018-02-04T04:04:34.462Z,13.48
2018-02-04T04:07:02.221Z,15.95
2018-02-04T04:09:29.975Z,15.57
2018-02-04T04:11:57.788Z,17.35
2018-02-04T04:14:26.330Z,15.00
2018-02-04T04:16:54.100Z,12.48
2018-02-04T04:19:21.915Z,15.40
2018-02-04T04:21:49.692Z,14.45
2018-02-04T04:24:17.459Z,14.45
2018-02-04T04:26:45.277Z,14.52
2018-02-04T04:29:13.806Z,14.70
2018-02-04T04:31:41.584Z,14.45
2018-02-04T04:34:09.395Z,17.48
2018-02-04T04:36:37.156Z,18.35
2018-02-04T04:39:04.951Z,18.70
2018-02-04T04:41:32.759Z,16.50
2018-02-04T04:44:00.519Z,19.40
2018-02-04T04:46:28.274Z,16.08
2018-02-04T04:48:56.092Z,15.23
2018-02-04T04:51:23.857Z,14.90
2018-02-04T04:53:51.620Z,15.27
2018-02-04T04:56:19.435Z,13.55
2018-02-04T04:58:47.975Z,15.25
2018-02-04T05:01:15.753Z,14.30
2018-02-04T05:03:43.630Z,17.70
2018-02-04T05:06:11.387Z,15.30
2018-02-04T05:08:39.152Z,15.13
2018-02-04T05:11:06.959Z,14.25
2018-02-04T05:13:34.718Z,10.88
2018-02-04T05:16:02.478Z,16.48
2018-02-04T05:18:30.297Z,16.48
2018-02-04T05:20:58.061Z,18.20
2018-02-04T05:23:25.824Z,15.00
2018-02-04T05:25:53.648Z,13.50
2018-02-04T05:28:21.408Z,16.27
2018-02-04T05:30:49.164Z,19.17
2018-02-04T05:33:16.971Z,18.75
2018-02-04T05:35:44.788Z,20.80
2018-02-04T05:38:12.568Z,20.73
2018-02-04T05:40:41.150Z,22.98
2018-02-04T05:43:08.948Z,20.52
2018-02-04T05:45:36.719Z,20.42
2018-02-04T05:48:05.304Z,18.92
2018-02-04T05:50:33.847Z,15.82
2018-02-04T05:53:01.621Z,19.40
2018-02-04T05:55:29.459Z,19.27
2018-02-04T05:57:57.224Z,20.70
2018-02-04T06:00:24.998Z,18.65
2018-02-04T06:02:52.811Z,20.12
2018-02-04T06:05:20.566Z,19.67
2018-02-04T06:07:48.351Z,20.08
2018-02-04T06:10:16.173Z,19.02
2018-02-04T06:12:44.696Z,21.70
2018-02-04T06:15:12.467Z,20.50
2018-02-04T06:17:40.303Z,18.42
2018-02-04T06:20:08.076Z,17.40
2018-02-04T06:22:35.851Z,15.65
2018-02-04T06:25:03.687Z,17.20
2018-02-04T06:27:31.464Z,15.85
2018-02-04T06:29:59.240Z,16.75
2018-02-04T06:32:27.057Z,17.67
2018-02-04T06:34:55.604Z,15.20
2018-02-04T06:37:23.364Z,15.38
2018-02-04T06:39:51.182Z,12.15
2018-02-04T06:42:18.964Z,14.55
2018-02-04T06:44:46.727Z,15.23
2018-02-04T06:47:14.532Z,17.40
2018-02-04T06:49:42.292Z,13.98
2018-02-04T06:52:10.048Z,16.05
2018-02-04T06:54:37.860Z,13.95
2018-02-04T06:57:05.611Z,13.15
2018-02-04T06:59:33.363Z,12.32
2018-02-04T07:02:01.940Z,16.80
2018-02-04T07:04:30.479Z,13.98
2018-02-04T07:06:58.244Z,13.43
2018-02-04T07:09:26.055Z,15.32
2018-02-04T07:11:54.588Z,14.27
2018-02-04T07:14:23.113Z,13.05
2018-02-04T07:16:51.711Z,11.25
2018-02-04T07:19:19.476Z,14.20
2018-02-04T07:21:47.259Z,14.70
2018-02-04T07:24:15.067Z,14.02
2018-02-04T07:26:43.588Z,11.10
2018-02-04T07:29:11.349Z,14.02
2018-02-04T07:31:39.155Z,13.50
2018-02-04T07:34:06.915Z,13.90
2018-02-04T07:36:34.673Z,15.23
2018-02-04T07:39:02.491Z,12.82
2018-02-04T07:41:30.248Z,12.93
2018-02-04T07:43:58.027Z,15.85
2018-02-04T07:46:25.846Z,14.73
2018-02-04T07:48:54.400Z,14.98
2018-02-04T07:51:22.157Z,16.75
2018-02-04T07:53:50.000Z,13.90
2018-02-04T07:56:17.767Z,17.87
2018-02-04T07:58:45.531Z,13.43
2018-02-04T08:01:13.342Z,14.13
2018-02-04T08:03:41.871Z,18.15
2018-02-04T08:06:09.652Z,14.65
2018-02-04T08:08:37.464Z,15.23
2018-02-04T08:11:05.222Z,14.25
2018-02-04T08:13:33.007Z,13.75
2018-02-04T08:16:00.816Z,13.43
2018-02-04T08:18:28.572Z,11.77
2018-02-04T08:20:56.364Z,11.75
2018-02-04T08:23:24.944Z,13.35
2018-02-04T08:25:53.466Z,12.77
2018-02-04T08:28:21.232Z,12.55
2018-02-04T08:30:49.042Z,13.52
2018-02-04T08:33:17.568Z,14.32
2018-02-04T08:35:45.339Z,13.95
2018-02-04T08:38:13.160Z,15.48
2018-02-04T08:40:40.920Z,11.45
2018-02-04T08:43:08.687Z,12.13
2018-02-04T08:45:36.507Z,17.15
2018-02-04T08:48:04.273Z,15.77
2018-02-04T08:50:32.043Z,17.48
2018-02-04T08:52:59.867Z,10.52
2018-02-04T08:55:27.637Z,16.10
2018-02-04T08:57:55.406Z,13.40
2018-02-04T09:00:23.225Z,24.50
2018-02-04T09:02:50.983Z,14.30
2018-02-04T09:05:18.769Z,13.52
2018-02-04T09:07:46.579Z,14.20
2018-02-04T09:10:14.344Z,14.00
2018-02-04T09:12:42.099Z,18.75
2018-02-04T09:15:09.975Z,19.83
2018-02-04T09:17:38.507Z,13.35
2018-02-04T09:20:06.275Z,19.83
2018-02-04T09:22:34.859Z,16.87
2018-02-04T09:25:02.624Z,14.80
2018-02-04T09:27:30.387Z,13.85
2018-02-04T09:29:58.204Z,12.02
2018-02-04T09:32:26.001Z,14.35
2018-02-04T09:34:53.765Z,17.08
2018-02-04T09:37:21.591Z,17.00
2018-02-04T09:39:49.381Z,18.23
2018-02-04T09:42:17.189Z,13.68
2018-02-04T09:44:45.780Z,12.43
2018-02-04T09:47:14.303Z,17.35
2018-02-04T09:49:42.071Z,15.55
2018-02-04T09:52:09.984Z,12.48
2018-02-04T09:54:38.508Z,16.50
2018-02-04T09:57:06.268Z,13.73
2018-02-04T09:59:34.076Z,12.85
2018-02-04T10:02:01.966Z,12.70
2018-02-04T10:04:29.752Z,17.80
2018-02-04T10:07:00.388Z,16.10
2018-02-04T10:09:28.589Z,11.95
2018-02-04T10:11:56.520Z,13.10
2018-02-04T10:14:25.230Z,14.00
2018-02-04T10:16:53.001Z,16.42
2018-02-04T10:19:20.781Z,14.20
2018-02-04T10:21:53.529Z,12.07
2018-02-04T10:24:21.333Z,14.98
2018-02-04T10:26:50.063Z,13.52
2018-02-04T10:29:17.892Z,12.48
2018-02-04T10:31:46.416Z,13.40
2018-02-04T10:34:14.197Z,16.50
2018-02-04T10:36:42.071Z,15.57
2018-02-04T10:39:09.911Z,17.95
2018-02-04T10:41:37.695Z,16.60
2018-02-04T10:44:05.561Z,18.75
2018-02-04T10:46:33.333Z,19.70
2018-02-04T10:49:01.939Z,12.27
2018-02-04T10:51:35.524Z,15.88
2018-02-04T10:54:04.072Z,14.00
2018-02-04T10:56:31.828Z,15.95
2018-02-04T10:58:59.666Z,11.73
2018-02-04T11:01:27.440Z,12.70
2018-02-04T11:03:55.221Z,12.43
2018-02-04T11:06:23.120Z,15.60
2018-02-04T11:08:51.685Z,12.05
2018-02-04T11:11:19.464Z,14.57
2018-02-04T11:13:48.048Z,14.40
2018-02-04T11:16:16.681Z,15.10
2018-02-04T11:18:44.547Z,12.30
2018-02-04T11:21:12.412Z,13.13
2018-02-04T11:23:40.238Z,16.48
2018-02-04T11:26:09.012Z,18.15
2018-02-04T11:28:36.883Z,14.23
2018-02-04T11:31:16.760Z,11.68
2018-02-04T11:33:44.591Z,14.32
2018-02-04T11:36:12.465Z,15.05
2018-02-04T11:38:40.879Z,14.77
2018-02-04T11:41:08.714Z,14.30
2018-02-04T11:43:37.288Z,12.25
2018-02-04T11:46:05.063Z,13.27
2018-02-04T11:48:32.912Z,12.93
2018-02-04T11:51:00.714Z,13.30
2018-02-04T11:53:28.487Z,10.65
2018-02-04T11:55:56.320Z,12.50
2018-02-04T11:58:24.084Z,13.15
2018-02-04T12:00:51.868Z,11.82
2018-02-04T12:03:19.685Z,13.55
2018-02-04T12:05:47.450Z,12.27
2018-02-04T12:08:15.241Z,17.33
2018-02-04T12:10:43.062Z,12.95
2018-02-04T12:13:10.892Z,14.73
2018-02-04T12:15:39.426Z,11.65
2018-02-04T12:18:07.247Z,13.65
2018-02-04T12:20:35.780Z,12.93
2018-02-04T12:23:03.562Z,14.25
2018-02-04T12:25:31.379Z,13.25
2018-02-04T12:27:59.140Z,11.52
2018-02-04T12:30:26.900Z,14.40
2018-02-04T12:32:54.725Z,10.55
2018-02-04T12:35:22.489Z,11.23
2018-02-04T12:37:50.247Z,9.20
2018-02-04T12:40:18.931Z,11.27
2018-02-04T12:42:46.692Z,10.27
2018-02-04T12:45:14.453Z,10.00
2018-02-04T12:47:42.263Z,10.52
2018-02-04T12:50:10.031Z,10.45
2018-02-04T12:52:37.805Z,12.80
2018-02-04T12:55:05.618Z,10.57
2018-02-04T12:57:34.284Z,10.30
2018-02-04T13:00:02.040Z,10.55
2018-02-04T13:02:29.892Z,14.55
2018-02-04T13:04:57.668Z,11.05
2018-02-04T13:07:25.447Z,10.80
2018-02-04T13:09:54.036Z,13.32
2018-02-04T13:12:22.564Z,11.00
2018-02-04T13:14:50.321Z,10.40
2018-02-04T13:17:18.128Z,11.52
2018-02-04T13:19:45.888Z,10.57
2018-02-04T13:22:13.699Z,10.38
2018-02-04T13:24:41.507Z,11.27
2018-02-04T13:27:09.271Z,13.18
2018-02-04T13:29:37.800Z,11.27
2018-02-04T13:32:05.612Z,11.18
2018-02-04T13:34:33.374Z,11.23
2018-02-04T13:37:01.132Z,14.70
2018-02-04T13:39:28.948Z,15.95
2018-02-04T13:41:56.731Z,13.80
2018-02-04T13:44:24.507Z,12.65
2018-02-04T13:46:52.330Z,9.93
2018-02-04T13:49:20.096Z,9.90
2018-02-04T13:51:47.854Z,9.98
2018-02-04T13:54:15.688Z,13.43
2018-02-04T13:56:44.219Z,11.27
2018-02-04T13:59:11.978Z,13.00
2018-02-04T14:01:40.007Z,13.35
2018-02-04T14:04:08.527Z,14.82
2018-02-04T14:06:36.282Z,12.70
2018-02-04T14:09:04.171Z,11.93
2018-02-04T14:11:31.928Z,10.98
2018-02-04T14:13:59.691Z,14.52
2018-02-04T14:16:27.508Z,15.00
2018-02-04T14:18:55.264Z,16.33
2018-02-04T14:21:23.049Z,13.60
2018-02-04T14:23:50.880Z,14.80
2018-02-04T14:26:19.443Z,12.37
2018-02-04T14:28:47.200Z,15.88
2018-02-04T14:31:15.016Z,17.40
2018-02-04T14:33:42.776Z,17.15
2018-02-04T14:36:10.548Z,16.08
2018-02-04T14:38:38.356Z,16.75
2018-02-04T14:41:06.116Z,19.98
2018-02-04T14:43:33.876Z,15.48
2018-02-04T14:46:01.688Z,15.32
2018-02-04T14:48:29.447Z,20.23
2018-02-04T14:50:57.208Z,16.10
2018-02-04T14:53:25.021Z,20.90
2018-02-04T14:55:52.819Z,24.48
2018-02-04T14:58:20.600Z,20.20
2018-02-04T15:00:48.410Z,20.08
2018-02-04T15:03:16.192Z,22.52
2018-02-04T15:05:55.935Z,22.80
2018-02-04T15:08:24.464Z,20.58
2018-02-04T15:10:52.272Z,21.55
2018-02-04T15:13:20.829Z,23.23
2018-02-04T15:15:48.596Z,19.58
2018-02-04T15:18:16.414Z,21.83
2018-02-04T15:20:44.171Z,26.05
2018-02-04T15:23:11.944Z,23.83
2018-02-04T15:25:39.780Z,26.45
2018-02-04T15:28:07.539Z,25.02
2018-02-04T15:30:35.300Z,24.92
2018-02-04T15:33:03.115Z,26.80
2018-02-04T15:35:30.883Z,25.33
2018-02-04T15:37:58.636Z,26.30
2018-02-04T15:40:27.837Z,30.00
2018-02-04T15:42:55.597Z,25.08
2018-02-04T15:45:23.362Z,26.67
2018-02-04T15:47:51.184Z,26.02
2018-02-04T15:50:18.974Z,27.17
2018-02-04T15:52:46.804Z,25.62
2018-02-04T15:55:14.659Z,32.80
2018-02-04T15:57:42.491Z,34.28
2018-02-04T16:00:10.254Z,32.38
2018-02-04T16:02:38.092Z,33.33
2018-02-04T16:05:05.871Z,31.67
2018-02-04T16:07:33.838Z,33.90
2018-02-04T16:10:12.083Z,30.60
2018-02-04T16:12:53.429Z,31.65
2018-02-04T16:15:32.294Z,28.40
2018-02-04T16:18:00.105Z,26.25
2018-02-04T16:20:27.875Z,33.55
2018-02-04T16:22:55.702Z,33.10
2018-02-04T16:25:23.480Z,30.35
2018-02-04T16:27:51.315Z,34.15
2018-02-04T16:30:19.144Z,37.00
2018-02-04T16:32:47.697Z,31.42
2018-02-04T16:35:15.455Z,36.53
2018-02-04T16:37:43.832Z,30.80
2018-02-04T16:40:11.896Z,32.65
2018-02-04T16:42:39.957Z,30.05
2018-02-04T16:45:08.456Z,36.40
2018-02-04T16:47:37.400Z,46.10
2018-02-04T16:50:06.740Z,29.05
2018-02-04T16:52:35.012Z,33.03
2018-02-04T16:55:02.982Z,42.53
2018-02-04T16:57:30.751Z,31.45
2018-02-04T16:59:58.571Z,42.10
2018-02-04T17:02:26.416Z,39.70
2018-02-04T17:04:54.180Z,41.42
2018-02-04T17:07:22.080Z,39.70
2018-02-04T17:09:54.991Z,35.67
2018-02-04T17:12:24.281Z,39.95
2018-02-04T17:14:52.239Z,40.45
2018-02-04T17:17:20.055Z,43.38
2018-02-04T17:19:47.930Z,42.22
2018-02-04T17:22:15.745Z,51.80
2018-02-04T17:24:43.564Z,41.45
2018-02-04T17:27:11.434Z,37.08
2018-02-04T17:29:39.196Z,41.58
2018-02-04T17:32:07.027Z,52.97
2018-02-04T17:34:34.837Z,46.63
2018-02-04T17:37:02.592Z,47.95
2018-02-04T17:39:30.421Z,50.65
2018-02-04T17:41:58.244Z,61.00
2018-02-04T17:44:26.024Z,62.60
2018-02-04T17:46:54.578Z,53.83
2018-02-04T17:49:22.479Z,60.90
2018-02-04T17:51:50.256Z,68.05
2018-02-04T17:54:18.053Z,66.65
2018-02-04T17:56:45.909Z,67.57
2018-02-04T17:59:13.686Z,71.57
2018-02-04T18:01:41.500Z,66.93
2018-02-04T18:04:09.330Z,74.60
2018-02-04T18:06:38.307Z,88.18
2018-02-04T18:09:06.135Z,64.72
2018-02-04T18:11:34.089Z,88.25
2018-02-04T18:14:01.887Z,70.80
2018-02-04T18:16:29.648Z,71.97
2018-02-04T18:18:57.478Z,73.95
2018-02-04T18:21:25.269Z,83.18
2018-02-04T18:23:53.033Z,73.55
2018-02-04T18:26:20.844Z,91.03
2018-02-04T18:28:49.372Z,95.20
2018-02-04T18:31:17.140Z,86.22
2018-02-04T18:33:44.959Z,72.75
2018-02-04T18:36:13.488Z,83.43
2018-02-04T18:38:41.255Z,81.45
2018-02-04T18:41:09.072Z,91.45
2018-02-04T18:43:36.852Z,92.88
2018-02-04T18:46:04.612Z,97.45
2018-02-04T18:48:32.424Z,84.30
2018-02-04T18:51:00.184Z,82.75
2018-02-04T18:53:27.941Z,93.95
2018-02-04T18:55:55.904Z,86.78
2018-02-04T18:58:23.676Z,79.03
2018-02-04T19:00:51.432Z,95.75
2018-02-04T19:03:19.269Z,101.20
2018-02-04T19:05:47.027Z,90.90
2018-02-04T19:08:14.793Z,92.50
2018-02-04T19:10:42.675Z,103.15
2018-02-04T19:13:10.452Z,86.53
2018-02-04T19:15:38.231Z,87.80
2018-02-04T19:18:06.819Z,101.32
2018-02-04T19:20:35.344Z,85.10
2018-02-04T19:23:03.104Z,74.55
2018-02-04T19:25:30.924Z,91.12
2018-02-04T19:27:58.691Z,87.97
2018-02-04T19:30:26.451Z,87.43
2018-02-04T19:32:54.266Z,91.30
2018-02-04T19:35:22.797Z,87.32
2018-02-04T19:37:50.580Z,85.95
2018-02-04T19:40:18.392Z,87.18
2018-02-04T19:42:46.165Z,61.55
2018-02-04T19:45:14.691Z,81.05
2018-02-04T19:47:42.509Z,63.55
2018-02-04T19:50:11.039Z,71.62
2018-02-04T19:52:39.584Z,70.07
2018-02-04T19:55:07.408Z,70.15
2018-02-04T19:57:35.177Z,76.68
2018-02-04T20:00:02.964Z,77.57
2018-02-04T20:02:31.547Z,75.18
2018-02-04T20:04:59.314Z,74.28
2018-02-04T20:07:27.081Z,69.15
2018-02-04T20:09:54.944Z,69.20
2018-02-04T20:12:29.909Z,61.83
2018-02-04T20:14:57.766Z,58.45
2018-02-04T20:17:25.567Z,65.68
2018-02-04T20:19:53.367Z,52.70
2018-02-04T20:22:21.189Z,52.88
2018-02-04T20:24:48.956Z,51.80
2018-02-04T20:27:16.728Z,62.83
2018-02-04T20:29:45.304Z,67.15
2018-02-04T20:32:25.704Z,53.58
2018-02-04T20:34:53.592Z,58.80
2018-02-04T20:37:21.363Z,55.05
2018-02-04T20:39:49.151Z,46.33
2018-02-04T20:42:17.807Z,63.35
2018-02-04T20:44:46.346Z,53.67
2018-02-04T20:47:14.189Z,53.42
2018-02-04T20:49:42.017Z,50.83
2018-02-04T20:52:11.821Z,48.53
2018-02-04T20:54:40.021Z,48.63
2018-02-04T20:57:08.604Z,55.00
2018-02-04T20:59:38.178Z,50.33
2018-02-04T21:02:06.460Z,52.83
2018-02-04T21:04:34.274Z,59.20
2018-02-04T21:07:02.035Z,49.17
2018-02-04T21:09:29.833Z,47.95
2018-02-04T21:11:57.703Z,54.30
2018-02-04T21:14:25.484Z,53.90
2018-02-04T21:16:53.244Z,56.22
2018-02-04T21:19:21.114Z,50.47
2018-02-04T21:21:49.647Z,50.17
2018-02-04T21:24:17.413Z,43.70
2018-02-04T21:26:45.256Z,46.95
2018-02-04T21:29:13.024Z,58.40
2018-02-04T21:31:40.795Z,68.90
2018-02-04T21:34:08.611Z,54.03
2018-02-04T21:36:37.148Z,45.40
2018-02-04T21:39:04.935Z,51.80
2018-02-04T21:41:32.761Z,48.17
2018-02-04T21:44:00.518Z,49.72
2018-02-04T21:46:28.290Z,54.13
2018-02-04T21:48:56.099Z,54.45
2018-02-04T21:51:23.856Z,51.65
2018-02-04T21:53:51.660Z,45.70
2018-02-04T21:56:19.624Z,50.42
2018-02-04T21:58:47.384Z,49.92
2018-02-04T22:01:15.160Z,57.78
2018-02-04T22:03:42.976Z,45.55
2018-02-04T22:06:10.744Z,52.42
2018-02-04T22:08:39.271Z,45.85
2018-02-04T22:11:07.085Z,49.67
2018-02-04T22:13:35.655Z,53.75
2018-02-04T22:16:03.415Z,43.72
2018-02-04T22:18:31.227Z,41.55
2018-02-04T22:20:58.975Z,42.22
2018-02-04T22:23:26.772Z,51.58
2018-02-04T22:25:54.589Z,41.08
2018-02-04T22:28:23.117Z,48.55
2018-02-04T22:30:50.883Z,37.78
2018-02-04T22:33:18.693Z,46.78
2018-02-04T22:35:47.215Z,42.83
2018-02-04T22:38:14.977Z,36.50
2018-02-04T22:40:42.793Z,45.75
2018-02-04T22:43:11.320Z,41.35
2018-02-04T22:45:39.082Z,38.92
2018-02-04T22:48:06.900Z,36.90
2018-02-04T22:50:34.660Z,38.03
2018-02-04T22:53:03.176Z,34.65
2018-02-04T22:55:31.013Z,43.17
2018-02-04T22:57:58.797Z,49.45
2018-02-04T23:00:26.555Z,40.00
2018-02-04T23:02:54.372Z,36.50
2018-02-04T23:05:22.135Z,38.80
2018-02-04T23:07:49.902Z,35.30
2018-02-04T23:10:17.714Z,45.28
2018-02-04T23:12:45.511Z,43.80
2018-02-04T23:15:13.284Z,33.65
2018-02-04T23:17:41.133Z,47.65
2018-02-04T23:20:08.915Z,42.28
2018-02-04T23:22:37.441Z,45.88
2018-02-04T23:25:05.274Z,42.97
2018-02-04T23:27:33.052Z,42.58
2018-02-04T23:30:00.816Z,52.90
2018-02-04T23:32:28.641Z,49.22
2018-02-04T23:34:56.395Z,47.08
2018-02-04T23:37:24.151Z,38.10
2018-02-04T23:39:51.972Z,45.88
2018-02-04T23:42:19.731Z,51.05
2018-02-04T23:44:47.486Z,49.38
2018-02-04T23:47:15.298Z,51.65
2018-02-04T23:49:43.050Z,51.88
2018-02-04T23:52:10.818Z,56.42
2018-02-04T23:54:38.632Z,47.38
2018-02-04T23:57:06.412Z,52.42
2018-02-04T23:59:34.231Z,51.97
